Time;durP1;ratioP1;P1;durP2;ratioP2;P2;SDS_P1;SDS_P2;PMS_P1;PMS_P2;Temp;Humidity;BMP_temperature;BMP_pressure;BME280_temperature;BME280_humidity;BME280_pressure;Samples;Min_cycle;Max_cycle;Signal;HPM_P1;HPM_P2
2022/09/28 00:00:52;;;;;;;11.33;9.27;;;;;;;6.47;100.00;101149.50;5073258;28;20147;-73
2022/09/28 00:03:18;;;;;;;11.17;9.43;;;;;;;6.46;100.00;101155.75;5073987;28;20135;-74
2022/09/28 00:05:43;;;;;;;11.20;9.73;;;;;;;6.46;100.00;101147.81;5074341;28;20075;-74
2022/09/28 00:08:09;;;;;;;13.90;9.47;;;;;;;6.45;100.00;101148.78;5074168;28;20100;-71
2022/09/28 00:10:34;;;;;;;11.77;8.50;;;;;;;6.39;100.00;101133.41;5075632;28;20439;-73
2022/09/28 00:13:00;;;;;;;13.03;8.83;;;;;;;6.48;100.00;101143.22;5075204;28;20127;-73
2022/09/28 00:15:26;;;;;;;10.87;9.63;;;;;;;6.42;100.00;101130.50;5088482;28;20040;-73
2022/09/28 00:17:51;;;;;;;12.43;9.00;;;;;;;6.50;100.00;101141.28;5094330;28;20676;-72
2022/09/28 00:20:18;;;;;;;16.67;11.17;;;;;;;6.52;100.00;101139.34;5093599;28;20052;-71
2022/09/28 00:22:43;;;;;;;12.63;10.13;;;;;;;6.47;100.00;101136.25;5095496;28;20035;-74
2022/09/28 00:25:09;;;;;;;16.63;10.63;;;;;;;6.49;100.00;101138.78;5095644;28;20040;-74
2022/09/28 00:27:34;;;;;;;17.40;10.00;;;;;;;6.48;100.00;101143.22;5089305;28;20039;-74
2022/09/28 00:30:00;;;;;;;15.10;10.07;;;;;;;6.46;100.00;101137.22;5074560;28;20040;-76
2022/09/28 00:32:26;;;;;;;15.30;11.50;;;;;;;6.45;100.00;101137.34;5074131;28;20028;-76
2022/09/28 00:34:52;;;;;;;13.43;9.93;;;;;;;6.46;100.00;101134.59;5074894;28;20032;-71
2022/09/28 00:37:18;;;;;;;13.07;9.53;;;;;;;6.46;100.00;101128.44;5083572;28;20118;-72
2022/09/28 00:39:45;;;;;;;14.43;9.67;;;;;;;6.43;100.00;101126.06;5082800;28;20096;-72
2022/09/28 00:42:14;;;;;;;12.20;9.70;;;;;;;6.39;100.00;101120.19;5080297;28;20515;-72
2022/09/28 00:44:52;;;;;;;14.67;10.50;;;;;;;6.33;100.00;101112.72;5085244;28;20070;-72
2022/09/28 00:47:56;;;;;;;14.07;10.43;;;;;;;6.40;100.00;101128.97;5080823;28;20115;-75
2022/09/28 00:50:32;;;;;;;16.10;10.70;;;;;;;6.35;100.00;101126.66;5013124;28;20037;-75
2022/09/28 00:53:20;;;;;;;17.87;10.93;;;;;;;6.34;100.00;101129.44;5015065;28;20084;-72
2022/09/28 00:55:57;;;;;;;;;;;;;;;6.36;100.00;101127.50;5054583;28;20040;-74
2022/09/28 00:58:51;;;;;;;12.93;9.77;;;;;;;6.18;100.00;101104.28;5073313;28;19917;-76
2022/09/28 01:01:19;;;;;;;20.03;11.13;;;;;;;6.21;100.00;101116.41;5030711;28;20064;-74
2022/09/28 01:03:47;;;;;;;14.77;9.50;;;;;;;6.14;100.00;101112.59;5048004;28;20466;-76
2022/09/28 01:06:26;;;;;;;16.17;10.38;;;;;;;6.18;100.00;101119.31;5032515;28;20033;-72
2022/09/28 01:08:57;;;;;;;13.27;9.20;;;;;;;6.10;100.00;101119.94;5032471;28;20124;-75
2022/09/28 01:11:23;;;;;;;12.70;9.70;;;;;;;6.09;100.00;101114.78;5032406;28;20171;-72
2022/09/28 01:13:52;;;;;;;15.27;9.47;;;;;;;6.08;100.00;101118.38;5032160;28;20041;-72
2022/09/28 01:16:23;;;;;;;14.95;10.45;;;;;;;6.13;100.00;101122.31;5032205;28;20060;-72
2022/09/28 01:19:27;;;;;;;14.23;9.57;;;;;;;6.13;100.00;101116.19;5032168;28;20033;-75
2022/09/28 01:22:07;;;;;;;13.30;9.33;;;;;;;6.08;100.00;101123.66;5032248;28;20152;-74
2022/09/28 01:24:45;;;;;;;13.77;9.50;;;;;;;6.04;100.00;101127.50;5021266;28;20038;-72
2022/09/28 01:27:25;;;;;;;12.40;9.80;;;;;;;6.07;100.00;101121.97;5027976;28;20042;-74
2022/09/28 01:29:51;;;;;;;14.83;9.63;;;;;;;6.04;100.00;101124.84;5012402;28;20034;-74
2022/09/28 01:32:42;;;;;;;14.13;9.80;;;;;;;6.03;100.00;101126.66;5012064;28;20036;-74
2022/09/28 01:35:16;;;;;;;19.47;11.90;;;;;;;5.98;100.00;101114.78;5005331;28;20080;-71
2022/09/28 01:38:05;;;;;;;13.80;11.27;;;;;;;5.98;100.00;101126.19;5012415;28;20508;-74
2022/09/28 01:40:31;;;;;;;;;;;;;;;5.99;100.00;101129.69;5012499;28;20049;-76
2022/09/28 01:43:02;;;;;;;12.30;9.20;;;;;;;5.88;100.00;101123.44;5011902;28;19917;-73
2022/09/28 01:45:32;;;;;;;13.73;8.70;;;;;;;5.77;100.00;101106.75;5010919;28;20038;-74
2022/09/28 01:48:03;;;;;;;10.40;8.67;;;;;;;5.84;100.00;101116.72;5012488;28;20053;-74
2022/09/28 01:50:35;;;;;;;13.20;8.67;;;;;;;5.84;100.00;101119.38;5012024;28;20034;-73
2022/09/28 01:53:12;;;;;;;12.00;9.00;;;;;;;5.85;100.00;101112.28;5012189;28;20046;-73
2022/09/28 01:55:57;;;;;;;12.43;8.77;;;;;;;5.83;100.00;101125.63;5011809;28;20041;-72
2022/09/28 01:58:34;;;;;;;12.20;8.87;;;;;;;5.78;100.00;101119.88;5012224;28;20038;-75
2022/09/28 02:01:05;;;;;;;13.37;8.30;;;;;;;5.76;100.00;101120.91;5049338;28;20198;-74
2022/09/28 02:03:38;;;;;;;10.43;8.73;;;;;;;5.71;100.00;101115.16;5051221;28;20048;-74
2022/09/28 02:06:39;;;;;;;12.90;8.70;;;;;;;5.71;100.00;101116.00;5035607;28;20044;-76
2022/09/28 02:09:11;;;;;;;12.87;8.57;;;;;;;5.66;100.00;101118.19;5000299;28;20065;-74
2022/09/28 02:11:43;;;;;;;13.47;9.07;;;;;;;5.67;100.00;101109.28;5035621;28;20504;-73
2022/09/28 02:14:14;;;;;;;14.60;9.33;;;;;;;5.62;100.00;101111.47;5035426;28;20116;-75
2022/09/28 02:16:45;;;;;;;11.83;8.70;;;;;;;5.62;100.00;101102.69;5035337;28;20083;-73
2022/09/28 02:19:21;;;;;;;10.27;8.20;;;;;;;5.60;100.00;101113.41;5035403;28;20046;-71
2022/09/28 02:22:04;;;;;;;10.50;7.87;;;;;;;5.60;100.00;101118.69;5035436;28;20029;-74
2022/09/28 02:24:48;;;;;;;10.33;7.77;;;;;;;5.58;100.00;101110.88;5035206;28;20045;-75
2022/09/28 02:27:49;;;;;;;13.13;9.67;;;;;;;5.56;100.00;101111.97;5035312;28;20034;-74
2022/09/28 02:30:16;;;;;;;11.90;8.27;;;;;;;5.53;100.00;101112.22;5000685;28;20507;-73
2022/09/28 02:32:47;;;;;;;14.27;8.73;;;;;;;5.51;100.00;101106.19;5019335;28;20036;-71
2022/09/28 02:35:16;;;;;;;11.60;9.00;;;;;;;5.51;100.00;101114.13;5054949;28;20033;-74
2022/09/28 02:37:42;;;;;;;13.50;9.00;;;;;;;5.48;100.00;101116.97;5055721;28;20546;-74
2022/09/28 02:40:13;;;;;;;13.93;8.60;;;;;;;5.42;100.00;101105.09;5055912;28;20040;-75
2022/09/28 02:42:57;;;;;;;12.37;9.00;;;;;;;5.52;100.00;101121.09;5053894;28;20510;-74
2022/09/28 02:45:40;;;;;;;11.47;9.43;;;;;;;5.46;100.00;101103.91;5055014;28;20129;-74
2022/09/28 02:48:28;;;;;;;10.10;7.53;;;;;;;5.57;100.00;101113.63;5054826;28;20120;-73
2022/09/28 02:51:20;;;;;;;11.23;7.82;;;;;;;5.58;100.00;101107.38;5054841;28;20031;-73
2022/09/28 02:54:05;;;;;;;9.13;7.67;;;;;;;5.60;100.00;101102.81;5040551;28;20044;-72
2022/09/28 02:57:08;;;;;;;13.13;9.10;;;;;;;5.65;100.00;101105.94;5054950;28;20114;-73
2022/09/28 03:00:11;;;;;;;10.67;8.20;;;;;;;5.64;100.00;101108.69;5061487;28;20060;-74
2022/09/28 03:02:49;;;;;;;9.27;7.07;;;;;;;5.66;100.00;101107.63;5070388;28;20040;-76
2022/09/28 03:05:52;;;;;;;11.27;7.30;;;;;;;5.70;100.00;101106.41;5074563;28;20070;-75
2022/09/28 03:08:29;;;;;;;11.67;7.30;;;;;;;5.78;100.00;101109.28;5074287;28;20024;-74
2022/09/28 03:11:06;;;;;;;11.77;8.87;;;;;;;5.81;100.00;101105.56;5055282;28;20353;-74
2022/09/28 03:13:33;;;;;;;9.33;6.73;;;;;;;5.88;100.00;101089.06;5056834;28;20086;-74
2022/09/28 03:16:06;;;;;;;9.00;7.03;;;;;;;5.89;100.00;101067.00;5074403;28;20040;-75
2022/09/28 03:18:31;;;;;;;12.57;7.30;;;;;;;6.08;100.00;101097.22;5074531;28;20134;-75
2022/09/28 03:20:59;;;;;;;14.83;7.50;;;;;;;6.07;100.00;101077.00;5073751;28;20138;-74
2022/09/28 03:23:24;;;;;;;11.47;7.50;;;;;;;6.20;100.00;101086.47;5074184;28;20043;-74
2022/09/28 03:25:50;;;;;;;10.97;7.00;;;;;;;6.21;100.00;101087.31;5074396;28;20342;-75
2022/09/28 03:28:16;;;;;;;13.40;8.20;;;;;;;6.20;100.00;101085.63;5074197;28;20036;-73
2022/09/28 03:30:42;;;;;;;11.40;8.20;;;;;;;6.25;100.00;101091.38;5073995;28;20036;-74
2022/09/28 03:33:07;;;;;;;14.27;8.57;;;;;;;6.26;100.00;101089.56;5076971;28;20092;-72
2022/09/28 03:35:33;;;;;;;14.03;8.03;;;;;;;6.32;100.00;101089.91;5077956;28;20502;-74
2022/09/28 03:37:58;;;;;;;12.93;7.77;;;;;;;6.36;100.00;101090.47;5075268;28;20095;-75
2022/09/28 03:40:24;;;;;;;15.30;7.60;;;;;;;6.34;100.00;101077.38;5075236;28;20118;-74
2022/09/28 03:42:50;;;;;;;11.10;7.17;;;;;;;6.41;100.00;101077.72;5073834;28;20492;-73
2022/09/28 03:45:15;;;;;;;9.47;7.37;;;;;;;6.39;100.00;101069.94;5056140;28;20042;-72
2022/09/28 03:47:47;;;;;;;10.83;8.00;;;;;;;6.55;100.00;101081.84;5056398;28;20062;-73
2022/09/28 03:50:14;;;;;;;15.87;8.17;;;;;;;6.63;100.00;101082.88;5073811;28;20032;-75
2022/09/28 03:52:39;;;;;;;18.43;8.50;;;;;;;6.76;100.00;101085.34;5057100;28;20029;-71
2022/09/28 03:55:05;;;;;;;13.03;7.20;;;;;;;6.83;100.00;101075.91;5075924;28;20151;-74
2022/09/28 03:57:31;;;;;;;12.03;7.37;;;;;;;6.95;100.00;101082.81;5073589;28;20032;-76
2022/09/28 03:59:57;;;;;;;15.23;7.83;;;;;;;6.94;100.00;101075.84;5071810;28;20147;-71
2022/09/28 04:02:47;;;;;;;17.00;8.33;;;;;;;6.95;100.00;101071.38;5053783;28;20086;-73
2022/09/28 04:05:13;;;;;;;13.37;7.33;;;;;;;6.92;100.00;101061.88;5053552;28;20040;-74
2022/09/28 04:07:38;;;;;;;14.03;7.50;;;;;;;6.94;100.00;101067.91;5053227;28;20051;-74
2022/09/28 04:10:04;;;;;;;12.93;7.90;;;;;;;6.95;100.00;101066.94;5053109;28;20550;-73
2022/09/28 04:12:30;;;;;;;9.30;6.87;;;;;;;6.93;100.00;101052.97;5053059;28;20393;-75
2022/09/28 04:14:56;;;;;;;11.07;8.57;;;;;;;6.98;100.00;101061.38;5053002;28;20024;-74
2022/09/28 04:17:21;;;;;;;12.83;7.63;;;;;;;7.00;100.00;101063.88;5053196;28;20037;-74
2022/09/28 04:19:47;;;;;;;10.87;6.80;;;;;;;6.96;100.00;101052.72;5052982;28;20492;-75
2022/09/28 04:22:13;;;;;;;14.83;7.17;;;;;;;7.03;100.00;101053.84;5052730;28;20037;-75
2022/09/28 04:24:39;;;;;;;9.50;6.73;;;;;;;7.01;100.00;101050.50;5052712;28;20456;-74
2022/09/28 04:29:48;;;;;;;12.00;6.70;;;;;;;7.04;100.00;101049.41;5052650;28;20025;-73
2022/09/28 04:32:13;;;;;;;8.70;5.80;;;;;;;7.01;100.00;101039.91;5053109;28;20033;-76
2022/09/28 04:34:39;;;;;;;9.70;5.70;;;;;;;7.03;100.00;101045.91;5053255;28;20033;-76
2022/09/28 04:37:04;;;;;;;6.60;5.50;;;;;;;6.98;100.00;101040.19;5052922;28;20135;-76
2022/09/28 04:39:30;;;;;;;7.97;5.53;;;;;;;6.96;100.00;101036.84;5053245;28;20040;-80
2022/09/28 04:41:55;;;;;;;7.97;5.83;;;;;;;6.91;100.00;101033.72;5052813;28;20033;-74
2022/09/28 04:44:21;;;;;;;10.97;5.70;;;;;;;6.81;100.00;101016.97;5053485;28;20128;-77
2022/09/28 04:46:46;;;;;;;9.03;5.67;;;;;;;6.90;100.00;101032.03;5052996;28;20036;-76
2022/09/28 04:49:12;;;;;;;9.27;6.50;;;;;;;7.02;100.00;101030.16;5052716;28;20028;-76
2022/09/28 04:51:37;;;;;;;7.87;6.43;;;;;;;7.10;100.00;101035.63;5052496;28;20442;-77
2022/09/28 04:54:03;;;;;;;7.40;5.23;;;;;;;7.19;100.00;101031.31;5052412;28;20090;-76
2022/09/28 04:56:28;;;;;;;7.33;5.77;;;;;;;7.24;100.00;101023.84;5052382;28;20412;-76
2022/09/28 04:58:57;;;;;;;5.87;5.17;;;;;;;7.33;100.00;101030.97;5052079;28;20029;-77
2022/09/28 05:01:48;;;;;;;7.33;5.43;;;;;;;7.36;100.00;101033.34;5052664;28;20056;-75
2022/09/28 05:04:15;;;;;;;6.20;5.40;;;;;;;7.38;100.00;101036.69;5052027;28;20056;-77
2022/09/28 05:06:40;;;;;;;7.00;5.70;;;;;;;7.44;100.00;101033.50;5033399;28;20052;-76
2022/09/28 05:09:08;;;;;;;8.57;4.67;;;;;;;7.40;100.00;101029.44;5051271;28;20115;-75
2022/09/28 05:11:33;;;;;;;10.40;4.57;;;;;;;7.46;100.00;101026.25;5051618;28;20115;-76
2022/09/28 05:13:59;;;;;;;6.13;4.80;;;;;;;7.54;100.00;101026.44;5051550;28;20375;-76
2022/09/28 05:16:25;;;;;;;6.43;5.20;;;;;;;7.56;100.00;101027.13;5051169;28;20028;-77
2022/09/28 05:18:55;;;;;;;6.97;4.30;;;;;;;7.55;100.00;101021.97;5051629;28;20056;-76
2022/09/28 05:21:20;;;;;;;7.03;4.97;;;;;;;7.56;100.00;101019.19;5052240;28;20033;-75
2022/09/28 05:23:46;;;;;;;7.00;4.57;;;;;;;7.50;100.00;101014.41;5051696;28;20044;-76
2022/09/28 05:26:13;;;;;;;5.07;4.03;;;;;;;7.40;100.00;101002.94;5051919;28;20477;-76
2022/09/28 05:28:38;;;;;;;6.40;4.43;;;;;;;7.46;100.00;101018.28;5051953;28;20120;-77
2022/09/28 05:31:04;;;;;;;6.47;4.23;;;;;;;7.47;100.00;101018.16;5052174;28;20448;-75
2022/09/28 05:33:31;;;;;;;7.53;4.70;;;;;;;7.45;100.00;101006.03;5051739;28;20045;-79
2022/09/28 05:35:58;;;;;;;4.57;3.77;;;;;;;7.49;100.00;101010.06;5050986;28;20081;-76
2022/09/28 05:38:23;;;;;;;4.17;3.73;;;;;;;7.45;100.00;101012.16;5052297;28;20407;-75
2022/09/28 05:40:49;;;;;;;4.27;3.60;;;;;;;7.37;100.00;100992.63;5051645;28;20124;-81
2022/09/28 05:43:15;;;;;;;6.87;4.00;;;;;;;7.43;100.00;101014.09;5051918;28;20033;-77
2022/09/28 05:45:41;;;;;;;4.47;4.07;;;;;;;7.43;100.00;101015.91;5052527;28;20037;-76
2022/09/28 05:48:06;;;;;;;6.00;4.13;;;;;;;7.44;100.00;101009.66;5052006;28;20091;-78
2022/09/28 05:50:32;;;;;;;5.60;3.90;;;;;;;7.37;100.00;100992.63;5034460;28;20068;-77
2022/09/28 05:53:08;;;;;;;4.97;4.00;;;;;;;7.43;100.00;101007.97;5051753;28;20567;-77
2022/09/28 05:55:35;;;;;;;6.10;5.13;;;;;;;7.34;100.00;100987.59;5052079;28;20037;-79
2022/09/28 05:58:04;;;;;;;4.83;4.33;;;;;;;7.51;100.00;101010.78;5051735;28;20037;-78
2022/09/28 06:00:30;;;;;;;;;;;;;;;7.62;100.00;101013.31;5035429;28;20053;-76
2022/09/28 06:03:04;;;;;;;6.53;4.27;;;;;;;7.65;100.00;101018.34;5053852;28;19920;-76
2022/09/28 06:05:32;;;;;;;10.23;4.73;;;;;;;7.68;100.00;101010.13;5053276;28;20068;-78
2022/09/28 06:08:03;;;;;;;6.30;4.20;;;;;;;7.72;100.00;101008.03;5053487;28;20120;-76
2022/09/28 06:10:29;;;;;;;6.00;4.33;;;;;;;7.72;100.00;100998.25;5063961;28;20033;-76
2022/09/28 06:12:55;;;;;;;5.30;4.23;;;;;;;7.88;100.00;101012.78;5053534;28;20056;-75
2022/09/28 06:15:23;;;;;;;5.40;4.13;;;;;;;7.90;100.00;100989.63;5070993;28;20045;-74
2022/09/28 06:18:09;;;;;;;4.43;3.95;;;;;;;8.15;100.00;101006.78;5070296;28;20040;-76
2022/09/28 06:20:37;;;;;;;9.87;4.07;;;;;;;8.27;100.00;100995.88;5070037;28;20048;-74
2022/09/28 06:23:03;;;;;;;6.93;5.10;;;;;;;8.53;100.00;101006.75;5070024;28;20041;-74
2022/09/28 06:25:29;;;;;;;6.37;4.07;;;;;;;8.72;100.00;100992.59;5063362;28;20037;-78
2022/09/28 06:27:58;;;;;;;8.43;4.10;;;;;;;8.88;100.00;100998.09;5051448;28;20389;-76
2022/09/28 06:30:25;;;;;;;5.23;3.73;;;;;;;8.99;100.00;100995.28;5033778;28;20439;-78
2022/09/28 06:32:53;;;;;;;6.20;4.50;;;;;;;9.15;100.00;100999.94;5034456;28;20087;-75
2022/09/28 06:35:20;;;;;;;4.25;3.85;;;;;;;9.36;99.49;100997.03;5050396;28;20140;-75
2022/09/28 06:37:46;;;;;;;5.93;4.53;;;;;;;9.34;99.02;100993.69;5051432;28;20037;-75
2022/09/28 06:40:14;;;;;;;7.88;3.88;;;;;;;9.28;98.92;100989.00;5051559;28;20041;-76
2022/09/28 06:42:40;;;;;;;4.60;3.90;;;;;;;9.11;98.49;100987.09;5051272;28;20407;-75
2022/09/28 06:45:06;;;;;;;6.90;3.93;;;;;;;8.68;99.94;100946.06;5051361;28;20043;-74
2022/09/28 06:47:32;;;;;;;6.17;3.70;;;;;;;8.64;100.00;100965.91;5054689;28;20056;-75
2022/09/28 06:49:58;;;;;;;4.50;3.50;;;;;;;8.64;100.00;100973.88;5054801;28;20075;-76
2022/09/28 06:52:24;;;;;;;9.10;3.50;;;;;;;8.65;100.00;100980.84;5054986;28;20029;-74
2022/09/28 06:54:50;;;;;;;5.07;3.17;;;;;;;8.63;100.00;100975.69;5036926;28;20043;-73
2022/09/28 06:57:16;;;;;;;9.30;3.30;;;;;;;8.75;100.00;100979.03;5054833;28;20412;-74
2022/09/28 06:59:43;;;;;;;5.00;3.67;;;;;;;8.87;100.00;100980.50;5036248;28;20056;-74
2022/09/28 07:02:14;;;;;;;9.97;3.77;;;;;;;8.92;100.00;100985.38;5036858;28;20033;-76
2022/09/28 07:04:43;;;;;;;3.00;2.37;;;;;;;8.94;100.00;100981.56;5054464;28;20484;-77
2022/09/28 07:07:09;;;;;;;;;;;;;;;9.02;100.00;100977.38;5055044;28;20400;-74
2022/09/28 07:09:35;;;;;;;4.57;2.60;;;;;;;9.05;100.00;100966.44;5053235;28;19923;-76
2022/09/28 07:12:03;;;;;;;6.30;3.33;;;;;;;9.04;100.00;100959.47;5036527;28;20044;-74
2022/09/28 07:14:30;;;;;;;2.67;2.30;;;;;;;9.11;100.00;100950.75;5054167;28;20076;-73
2022/09/28 07:16:56;;;;;;;3.70;2.70;;;;;;;9.17;100.00;100942.19;5056675;28;20052;-76
2022/09/28 07:19:21;;;;;;;6.20;2.40;;;;;;;9.21;99.50;100951.53;5054555;28;20048;-74
2022/09/28 07:21:47;;;;;;;2.70;2.50;;;;;;;9.28;99.06;100943.81;5054334;28;20036;-75
2022/09/28 07:24:13;;;;;;;4.07;2.87;;;;;;;9.25;98.80;100936.09;5054380;28;20048;-76
2022/09/28 07:26:38;;;;;;;2.50;2.30;;;;;;;9.30;98.88;100945.31;5054392;28;20433;-77
2022/09/28 07:29:04;;;;;;;3.30;2.53;;;;;;;9.26;99.32;100948.44;5053836;28;20496;-73
2022/09/28 07:31:31;;;;;;;3.30;2.70;;;;;;;9.26;99.64;100936.00;5054094;28;20047;-75
2022/09/28 07:33:57;;;;;;;3.10;2.80;;;;;;;9.27;99.54;100945.63;5053945;28;20076;-75
2022/09/28 07:36:23;;;;;;;5.53;3.07;;;;;;;9.32;100.00;100942.53;5054027;28;20041;-76
2022/09/28 07:38:49;;;;;;;4.50;2.63;;;;;;;9.39;100.00;100937.44;5036469;28;20037;-75
2022/09/28 07:41:20;;;;;;;4.30;2.60;;;;;;;9.33;99.20;100933.56;5035012;28;20135;-76
2022/09/28 07:43:45;;;;;;;3.13;2.40;;;;;;;9.42;99.87;100937.97;5054457;28;20094;-73
2022/09/28 07:46:11;;;;;;;3.57;2.33;;;;;;;9.41;98.80;100936.28;5054075;28;20033;-76
2022/09/28 07:48:41;;;;;;;2.80;2.33;;;;;;;9.43;98.65;100934.31;5036388;28;20079;-74
2022/09/28 07:51:08;;;;;;;3.63;2.20;;;;;;;9.32;98.77;100926.56;5053822;28;20558;-76
2022/09/28 07:53:34;;;;;;;2.83;2.20;;;;;;;9.36;99.09;100929.75;5035727;28;20028;-74
2022/09/28 07:56:07;;;;;;;3.47;2.47;;;;;;;9.35;99.16;100930.75;5053793;28;20060;-77
2022/09/28 07:58:37;;;;;;;3.90;1.97;;;;;;;9.34;98.97;100942.38;5035331;28;20044;-76
2022/09/28 08:01:09;;;;;;;3.97;2.07;;;;;;;9.32;99.23;100931.88;5053699;28;20118;-75
2022/09/28 08:03:36;;;;;;;3.60;2.00;;;;;;;9.27;99.05;100932.34;5053951;28;20044;-74
2022/09/28 08:06:08;;;;;;;2.07;1.87;;;;;;;9.26;99.91;100929.84;5053854;28;20094;-75
2022/09/28 08:08:34;;;;;;;5.77;3.07;;;;;;;9.27;100.00;100928.84;5053677;28;20492;-73
2022/09/28 08:11:00;;;;;;;3.10;2.40;;;;;;;9.22;100.00;100925.78;5053661;28;20098;-78
2022/09/28 08:13:25;;;;;;;4.97;2.77;;;;;;;9.20;100.00;100933.06;5061279;28;20029;-75
2022/09/28 08:15:53;;;;;;;2.97;2.63;;;;;;;9.17;100.00;100928.06;5066680;28;20062;-74
2022/09/28 08:18:19;;;;;;;3.90;3.00;;;;;;;9.12;100.00;100936.47;5065851;28;20057;-74
2022/09/28 08:23:29;;;;;;;3.67;2.60;;;;;;;9.20;100.00;100925.09;5061149;28;20068;-77
2022/09/28 08:25:57;;;;;;;3.27;2.57;;;;;;;9.23;100.00;100927.44;5062438;28;20045;-77
2022/09/28 08:28:23;;;;;;;3.70;2.78;;;;;;;9.22;100.00;100921.28;5063568;28;20037;-74
2022/09/28 08:30:49;;;;;;;4.63;2.97;;;;;;;9.21;100.00;100929.41;5062914;28;20579;-75
2022/09/28 08:33:17;;;;;;;3.30;2.70;;;;;;;9.23;100.00;100932.75;5039914;28;20041;-75
2022/09/28 08:35:49;;;;;;;3.67;3.17;;;;;;;9.23;100.00;100938.09;5039302;28;20446;-75
2022/09/28 08:38:14;;;;;;;5.50;2.63;;;;;;;9.06;100.00;100893.72;5021953;28;20476;-76
2022/09/28 08:41:06;;;;;;;4.87;3.07;;;;;;;9.34;100.00;100919.28;5058916;28;20048;-78
2022/09/28 08:43:56;;;;;;;4.13;2.97;;;;;;;9.53;99.31;100935.06;5056217;28;20138;-74
2022/09/28 08:46:31;;;;;;;4.87;3.30;;;;;;;9.65;98.21;100926.88;5055308;28;20036;-77
2022/09/28 08:48:59;;;;;;;4.57;3.00;;;;;;;9.67;97.71;100930.22;5043549;28;20066;-76
2022/09/28 08:51:46;;;;;;;4.50;2.33;;;;;;;9.68;97.27;100921.25;5056653;28;20033;-75
2022/09/28 08:54:24;;;;;;;3.63;2.50;;;;;;;9.79;96.90;100921.00;5058104;28;20024;-76
2022/09/28 08:57:10;;;;;;;5.43;2.78;;;;;;;9.69;95.85;100893.69;5058319;28;20043;-74
2022/09/28 08:59:47;;;;;;;40.87;9.03;;;;;;;9.85;95.10;100913.28;5069884;28;20065;-77
2022/09/28 09:02:41;;;;;;;7.40;2.20;;;;;;;9.88;94.98;100918.28;5055896;28;20051;-76
2022/09/28 09:05:13;;;;;;;37.63;7.07;;;;;;;9.97;94.37;100905.88;5038919;28;20132;-76
2022/09/28 09:07:57;;;;;;;13.03;3.53;;;;;;;10.21;93.99;100913.22;5057602;28;20037;-77
2022/09/28 09:10:52;;;;;;;35.63;6.80;;;;;;;10.35;92.98;100911.81;5054033;28;20400;-75
2022/09/28 09:13:32;;;;;;;15.60;4.20;;;;;;;10.53;92.48;100912.56;5055098;28;20036;-76
2022/09/28 09:16:09;;;;;;;21.23;6.07;;;;;;;10.47;91.55;100879.44;5053288;28;20040;-75
2022/09/28 09:18:53;;;;;;;3.10;2.43;;;;;;;10.53;90.72;100901.94;5052089;28;20420;-75
2022/09/28 09:21:27;;;;;;;8.10;3.60;;;;;;;10.41;91.71;100912.03;5051945;28;20633;-75
2022/09/28 09:24:24;;;;;;;3.67;2.10;;;;;;;10.29;92.39;100893.81;5035868;28;20044;-79
2022/09/28 09:27:17;;;;;;;34.10;5.57;;;;;;;10.24;91.56;100900.44;5030797;28;20037;-76
2022/09/28 09:29:49;;;;;;;40.30;9.07;;;;;;;10.20;92.01;100893.75;5041222;28;20036;-77
2022/09/28 09:32:34;;;;;;;5.53;2.40;;;;;;;10.39;91.09;100899.84;5052357;28;20059;-76
2022/09/28 09:35:44;;;;;;;8.63;2.33;;;;;;;10.45;90.38;100893.91;5051636;28;20041;-78
2022/09/28 09:38:16;;;;;;;4.60;2.40;;;;;;;10.47;90.06;100898.06;4998044;28;20044;-76
2022/09/28 09:40:53;;;;;;;3.30;2.70;;;;;;;10.43;89.88;100887.91;5051930;28;20037;-75
2022/09/28 09:43:57;;;;;;;3.57;1.90;;;;;;;10.67;89.59;100888.00;5051991;28;20471;-75
2022/09/28 09:46:50;;;;;;;2.10;1.90;;;;;;;10.96;87.49;100884.09;5052007;28;20033;-77
2022/09/28 09:50:11;;;;;;;4.97;2.53;;;;;;;10.93;86.26;100892.44;5052763;28;20037;-75
2022/09/28 09:52:56;;;;;;;3.80;2.13;;;;;;;10.67;86.72;100888.00;5028102;28;20588;-73
2022/09/28 09:55:24;;;;;;;12.73;3.57;;;;;;;10.45;87.52;100883.25;5052554;28;20033;-79
2022/09/28 09:58:03;;;;;;;9.20;3.57;;;;;;;10.37;88.83;100885.84;5052834;28;20032;-74
2022/09/28 10:00:30;;;;;;;29.00;5.93;;;;;;;10.33;88.76;100889.81;5051782;28;20423;-76
2022/09/28 10:02:59;;;;;;;5.20;1.97;;;;;;;10.30;88.65;100890.16;5051859;28;20048;-73
2022/09/28 10:05:28;;;;;;;26.38;5.22;;;;;;;10.22;88.60;100889.13;5051556;28;20032;-76
2022/09/28 10:08:02;;;;;;;2.80;2.40;;;;;;;10.10;89.10;100885.00;5051868;28;20037;-74
2022/09/28 10:10:32;;;;;;;15.83;2.67;;;;;;;9.89;89.85;100871.22;5051550;28;20490;-76
2022/09/28 10:12:58;;;;;;;4.93;1.90;;;;;;;9.76;90.55;100892.91;5051694;28;20119;-77
2022/09/28 10:15:26;;;;;;;9.60;2.93;;;;;;;9.51;92.98;100878.56;5051609;28;20174;-75
2022/09/28 10:17:59;;;;;;;15.98;3.65;;;;;;;9.47;93.92;100887.00;5033748;28;20037;-76
2022/09/28 10:20:28;;;;;;;32.20;7.17;;;;;;;9.37;95.01;100881.75;5052493;28;20049;-74
2022/09/28 10:22:57;;;;;;;25.80;5.27;;;;;;;9.45;94.55;100889.81;5055335;28;20075;-74
2022/09/28 10:25:23;;;;;;;12.97;3.70;;;;;;;9.60;94.58;100884.81;5055639;28;20036;-76
2022/09/28 10:27:51;;;;;;;25.63;4.97;;;;;;;9.74;92.87;100892.22;5055217;28;20107;-75
2022/09/28 10:30:22;;;;;;;2.77;2.30;;;;;;;9.91;92.05;100887.88;5054979;28;20047;-75
2022/09/28 10:32:50;;;;;;;25.57;5.57;;;;;;;10.15;90.72;100888.03;5055468;28;20040;-74
2022/09/28 10:35:18;;;;;;;3.03;2.40;;;;;;;10.28;89.16;100876.16;5055215;28;20032;-75
2022/09/28 10:37:59;;;;;;;19.98;5.28;;;;;;;10.35;89.89;100866.53;5037425;28;20029;-73
2022/09/28 10:40:26;;;;;;;3.87;2.60;;;;;;;10.52;89.16;100878.97;5055160;28;20051;-75
2022/09/28 10:42:59;;;;;;;3.88;2.60;;;;;;;10.58;88.34;100867.66;5054751;28;20044;-74
2022/09/28 10:45:35;;;;;;;2.30;2.10;;;;;;;10.70;87.09;100863.72;5055069;28;20044;-74
2022/09/28 10:48:05;;;;;;;14.60;3.10;;;;;;;10.81;87.05;100863.44;5055122;28;20045;-75
2022/09/28 10:50:31;;;;;;;2.90;2.47;;;;;;;10.78;87.28;100845.09;5055015;28;20510;-75
2022/09/28 10:53:21;;;;;;;12.33;3.90;;;;;;;11.03;87.21;100861.16;5054775;28;20041;-74
2022/09/28 10:55:59;;;;;;;17.50;3.80;;;;;;;11.08;85.81;100858.84;5036817;28;20086;-75
2022/09/28 10:58:40;;;;;;;;;;;;;;;11.17;86.32;100860.50;5054981;28;20135;-74
2022/09/28 11:01:18;;;;;;;15.20;4.73;;;;;;;11.02;86.65;100859.50;5054421;28;19921;-76
2022/09/28 11:03:59;;;;;;;34.88;10.40;;;;;;;10.79;89.12;100853.94;5054816;28;20051;-74
2022/09/28 11:06:31;;;;;;;5.90;3.17;;;;;;;10.69;88.96;100854.03;5052965;28;20029;-75
2022/09/28 11:09:00;;;;;;;23.43;4.23;;;;;;;10.83;88.85;100857.94;5054470;28;20040;-75
2022/09/28 11:11:26;;;;;;;10.57;3.47;;;;;;;10.94;88.46;100862.13;5054367;28;20031;-73
2022/09/28 11:13:54;;;;;;;3.93;2.33;;;;;;;10.90;88.50;100856.28;5053852;28;20404;-74
2022/09/28 11:16:27;;;;;;;;;;;;;;;10.85;88.66;100858.59;5054750;28;20079;-74
2022/09/28 11:18:53;;;;;;;2.60;1.83;;;;;;;10.71;89.11;100846.75;5054329;28;19916;-74
2022/09/28 11:21:23;;;;;;;2.20;1.73;;;;;;;10.67;88.77;100842.72;5054057;28;20045;-74
2022/09/28 11:23:56;;;;;;;7.32;1.95;;;;;;;10.46;89.78;100818.34;5019778;28;20037;-74
2022/09/28 11:26:22;;;;;;;1.70;1.60;;;;;;;10.69;89.66;100839.88;5053897;28;20041;-75
2022/09/28 11:28:52;;;;;;;2.23;2.03;;;;;;;10.71;89.69;100860.06;5054154;28;20055;-73
2022/09/28 11:31:25;;;;;;;2.53;2.00;;;;;;;10.61;88.45;100848.69;5054155;28;20064;-73
2022/09/28 11:34:02;;;;;;;3.63;2.57;;;;;;;10.46;90.22;100847.66;5053583;28;20036;-74
2022/09/28 11:37:01;;;;;;;4.00;2.83;;;;;;;10.48;90.33;100845.66;5054078;28;20131;-74
2022/09/28 11:39:47;;;;;;;4.10;2.27;;;;;;;10.52;89.43;100842.50;5053925;28;20045;-73
2022/09/28 11:42:15;;;;;;;2.30;1.90;;;;;;;10.51;88.66;100837.34;5053879;28;20095;-74
2022/09/28 11:44:45;;;;;;;2.58;1.70;;;;;;;10.47;88.62;100836.00;5053700;28;20475;-74
2022/09/28 11:47:52;;;;;;;2.37;1.80;;;;;;;10.65;88.62;100831.38;5053721;28;20037;-75
2022/09/28 11:50:21;;;;;;;2.13;1.80;;;;;;;10.70;88.16;100825.59;5053742;28;20048;-74
2022/09/28 11:52:46;;;;;;;4.60;2.17;;;;;;;10.74;87.40;100829.59;5035761;28;20033;-75